createdAt,value
2022-08-18T00:01:14.605Z,99.90
2022-08-18T00:03:56.707Z,99.90
2022-08-18T00:06:28.619Z,99.90
2022-08-18T00:08:57.233Z,99.90
2022-08-18T00:11:24.378Z,99.90
2022-08-18T00:13:51.106Z,99.90
2022-08-18T00:16:17.821Z,99.90
2022-08-18T00:18:44.503Z,99.90
2022-08-18T00:21:11.343Z,99.90
2022-08-18T00:23:38.710Z,99.90
2022-08-18T00:26:05.685Z,99.90
2022-08-18T00:28:32.424Z,99.90
2022-08-18T00:30:59.139Z,99.90
2022-08-18T00:33:25.812Z,99.90
2022-08-18T00:35:52.572Z,99.90
2022-08-18T00:38:23.648Z,99.90
2022-08-18T00:40:53.817Z,99.90
2022-08-18T00:43:39.765Z,99.90
2022-08-18T00:46:09.156Z,99.90
2022-08-18T00:48:36.090Z,99.90
2022-08-18T00:51:10.625Z,99.90
2022-08-18T00:53:50.210Z,99.90
2022-08-18T00:56:22.279Z,99.90
2022-08-18T00:58:57.081Z,99.90
2022-08-18T01:01:26.353Z,99.90
2022-08-18T01:04:00.670Z,99.90
2022-08-18T01:06:34.620Z,99.90
2022-08-18T01:09:02.362Z,99.90
2022-08-18T01:11:29.598Z,99.90
2022-08-18T01:13:57.596Z,99.90
2022-08-18T01:16:57.662Z,99.90
2022-08-18T01:19:45.241Z,99.90
2022-08-18T01:22:43.379Z,99.90
2022-08-18T01:25:29.145Z,99.90
2022-08-18T01:27:57.010Z,99.90
2022-08-18T01:30:27.924Z,99.90
2022-08-18T01:32:54.677Z,99.90
2022-08-18T01:35:25.559Z,99.90
2022-08-18T01:37:53.466Z,99.90
2022-08-18T01:41:23.804Z,99.90
2022-08-18T01:43:10.345Z,99.90
2022-08-18T01:45:37.190Z,99.90
2022-08-18T01:48:04.833Z,99.90
2022-08-18T01:50:34.663Z,99.90
2022-08-18T01:53:04.356Z,99.90
2022-08-18T01:55:33.181Z,99.90
2022-08-18T01:58:01.375Z,99.90
2022-08-18T02:00:29.062Z,99.90
2022-08-18T02:03:02.151Z,99.90
2022-08-18T02:05:34.503Z,99.90
2022-08-18T02:08:01.221Z,99.90
2022-08-18T02:10:27.915Z,99.90
2022-08-18T02:12:54.839Z,99.90
2022-08-18T02:15:21.575Z,99.90
2022-08-18T02:17:48.293Z,99.90
2022-08-18T02:20:17.831Z,99.90
2022-08-18T02:22:45.363Z,99.90
2022-08-18T02:25:14.018Z,99.90
2022-08-18T02:27:41.006Z,99.90
2022-08-18T02:30:10.917Z,99.90
2022-08-18T02:32:38.067Z,99.90
2022-08-18T02:35:11.502Z,99.90
2022-08-18T02:37:42.061Z,99.90
2022-08-18T02:40:15.010Z,99.90
2022-08-18T02:42:43.700Z,99.90
2022-08-18T02:45:11.246Z,99.90
2022-08-18T02:47:38.204Z,99.90
2022-08-18T02:50:05.778Z,99.90
2022-08-18T02:52:32.828Z,99.90
2022-08-18T02:55:03.344Z,99.90
2022-08-18T02:57:31.191Z,99.90
2022-08-18T02:59:57.905Z,99.90
2022-08-18T03:02:26.982Z,99.90
2022-08-18T03:04:53.725Z,99.90
2022-08-18T03:07:20.532Z,99.90
2022-08-18T03:09:47.178Z,99.90
2022-08-18T03:12:13.868Z,99.90
2022-08-18T03:14:40.610Z,99.90
2022-08-18T03:17:09.026Z,99.90
2022-08-18T03:19:36.519Z,99.90
2022-08-18T03:22:05.829Z,99.90
2022-08-18T03:24:52.618Z,99.90
2022-08-18T03:27:19.271Z,99.90
2022-08-18T03:29:45.944Z,99.90
2022-08-18T03:32:12.655Z,99.90
2022-08-18T03:34:39.395Z,99.90
2022-08-18T03:37:06.178Z,99.90
2022-08-18T03:39:32.872Z,99.90
2022-08-18T03:42:01.421Z,99.90
2022-08-18T03:44:36.577Z,99.90
2022-08-18T03:47:07.511Z,99.90
2022-08-18T03:49:35.409Z,99.90
2022-08-18T03:52:02.505Z,99.90
2022-08-18T03:54:32.043Z,99.90
2022-08-18T03:57:00.145Z,99.90
2022-08-18T03:59:28.191Z,99.90
2022-08-18T04:01:55.345Z,99.90
2022-08-18T04:04:26.204Z,99.90
2022-08-18T04:07:04.569Z,99.90
2022-08-18T04:09:33.583Z,99.90
2022-08-18T04:12:05.990Z,99.90
2022-08-18T04:14:33.763Z,99.90
2022-08-18T04:17:00.825Z,99.90
2022-08-18T04:19:28.191Z,99.90
2022-08-18T04:21:57.433Z,99.90
2022-08-18T04:24:25.932Z,99.90
2022-08-18T04:26:53.279Z,99.90
2022-08-18T04:29:21.319Z,99.90
2022-08-18T04:31:49.074Z,99.90
2022-08-18T04:34:16.699Z,99.90
2022-08-18T04:36:43.942Z,99.90
2022-08-18T04:39:12.877Z,99.90
2022-08-18T04:41:43.360Z,99.90
2022-08-18T04:44:11.652Z,99.90
2022-08-18T04:46:41.465Z,99.90
2022-08-18T04:49:10.512Z,99.90
2022-08-18T04:52:39.393Z,99.90
2022-08-18T04:54:26.958Z,99.90
2022-08-18T04:56:55.027Z,99.90
2022-08-18T04:59:21.691Z,99.90
2022-08-18T05:01:48.524Z,99.90
2022-08-18T05:04:17.430Z,99.90
2022-08-18T05:06:45.331Z,99.90
2022-08-18T05:09:16.910Z,99.90
2022-08-18T05:11:50.809Z,99.90
2022-08-18T05:14:18.241Z,99.90
2022-08-18T05:16:47.949Z,99.90
2022-08-18T05:19:19.461Z,99.90
2022-08-18T05:21:47.104Z,99.90
2022-08-18T05:24:18.084Z,99.90
2022-08-18T05:26:45.412Z,99.90
2022-08-18T05:29:18.458Z,99.90
2022-08-18T05:31:48.018Z,99.90
2022-08-18T05:34:15.527Z,99.90
2022-08-18T05:36:43.564Z,99.90
2022-08-18T05:39:23.737Z,99.90
2022-08-18T05:42:11.115Z,99.90
2022-08-18T05:44:45.776Z,99.90
2022-08-18T05:47:17.337Z,99.90
2022-08-18T05:49:48.061Z,99.90
2022-08-18T05:52:38.122Z,99.90
2022-08-18T05:55:31.876Z,99.90
2022-08-18T05:58:05.336Z,99.90
2022-08-18T06:00:33.204Z,99.90
2022-08-18T06:03:45.249Z,99.90
2022-08-18T06:06:25.515Z,99.90
2022-08-18T06:09:14.136Z,99.90
2022-08-18T06:11:41.007Z,99.90
2022-08-18T06:14:07.821Z,99.90
2022-08-18T06:17:07.247Z,99.90
2022-08-18T06:20:10.114Z,99.90
2022-08-18T06:22:55.229Z,99.90
2022-08-18T06:25:50.649Z,99.90
2022-08-18T06:28:17.601Z,99.90
2022-08-18T06:30:47.400Z,99.90
2022-08-18T06:33:39.599Z,99.90
2022-08-18T06:36:32.508Z,99.90
2022-08-18T06:39:23.714Z,99.90
2022-08-18T06:41:51.325Z,99.90
2022-08-18T06:44:46.789Z,99.90
2022-08-18T06:47:34.637Z,99.90
2022-08-18T06:50:08.208Z,99.90
2022-08-18T06:52:39.142Z,99.90
2022-08-18T06:55:17.458Z,99.90
2022-08-18T06:57:59.890Z,99.90
2022-08-18T07:00:34.703Z,99.90
2022-08-18T07:03:22.738Z,99.90
2022-08-18T07:06:18.466Z,99.90
2022-08-18T07:08:45.884Z,99.90
2022-08-18T07:11:29.537Z,99.90
2022-08-18T07:14:16.438Z,98.70
2022-08-18T07:17:00.084Z,99.60
2022-08-18T07:19:30.538Z,98.80
2022-08-18T07:22:18.863Z,98.50
2022-08-18T07:24:52.859Z,97.90
2022-08-18T07:27:41.476Z,98.10
2022-08-18T07:30:36.568Z,97.80
2022-08-18T07:33:24.076Z,97.80
2022-08-18T07:36:00.362Z,97.70
2022-08-18T07:38:42.812Z,97.60
2022-08-18T07:41:26.090Z,98.00
2022-08-18T07:44:13.996Z,98.50
2022-08-18T07:46:59.547Z,98.70
2022-08-18T07:49:31.308Z,99.30
2022-08-18T07:52:23.215Z,99.30
2022-08-18T07:55:14.936Z,99.60
2022-08-18T07:58:01.283Z,99.60
2022-08-18T08:00:58.730Z,99.30
2022-08-18T08:03:51.057Z,99.20
2022-08-18T08:07:06.087Z,99.70
2022-08-18T08:09:52.097Z,99.90
2022-08-18T08:12:25.334Z,99.00
2022-08-18T08:15:17.629Z,98.60
2022-08-18T08:17:47.353Z,97.90
2022-08-18T08:20:33.572Z,97.90
2022-08-18T08:23:44.942Z,97.90
2022-08-18T08:26:43.570Z,98.30
2022-08-18T08:29:40.914Z,98.20
2022-08-18T08:32:19.805Z,99.30
2022-08-18T08:35:47.058Z,98.90
2022-08-18T08:38:29.474Z,99.10
2022-08-18T08:41:05.271Z,99.30
2022-08-18T08:43:40.361Z,99.10
2022-08-18T08:46:15.524Z,98.40
2022-08-18T08:48:55.999Z,98.60
2022-08-18T08:51:56.774Z,98.30
2022-08-18T08:54:42.375Z,98.30
2022-08-18T08:57:11.422Z,98.10
2022-08-18T08:59:40.607Z,96.30
2022-08-18T09:02:22.667Z,95.40
2022-08-18T09:05:15.773Z,94.70
2022-08-18T09:08:12.663Z,95.60
2022-08-18T09:10:50.487Z,95.90
2022-08-18T09:13:38.596Z,94.50
2022-08-18T09:16:12.292Z,94.90
2022-08-18T09:19:30.547Z,95.40
2022-08-18T09:22:03.764Z,94.90
2022-08-18T09:24:45.751Z,95.40
2022-08-18T09:27:48.628Z,95.00
2022-08-18T09:30:45.256Z,94.70
2022-08-18T09:33:32.312Z,93.50
2022-08-18T09:36:36.076Z,93.40
2022-08-18T09:39:37.940Z,94.40
2022-08-18T09:42:33.653Z,92.80
2022-08-18T09:45:33.534Z,93.40
2022-08-18T09:48:12.482Z,94.00
2022-08-18T09:51:06.388Z,94.30
2022-08-18T09:53:55.127Z,95.90
2022-08-18T09:56:53.842Z,96.40
2022-08-18T09:59:34.765Z,95.40
2022-08-18T10:05:20.197Z,95.00
2022-08-18T10:07:53.242Z,94.90
2022-08-18T10:11:02.445Z,94.70
2022-08-18T10:13:49.573Z,93.20
2022-08-18T10:16:38.225Z,94.10
2022-08-18T10:19:40.380Z,94.60
2022-08-18T10:22:10.567Z,95.50
2022-08-18T10:24:54.896Z,95.80
2022-08-18T10:27:45.822Z,95.60
2022-08-18T10:30:36.207Z,95.80
2022-08-18T10:33:17.189Z,95.70
2022-08-18T10:36:31.601Z,95.80
2022-08-18T10:38:58.374Z,95.30
2022-08-18T10:41:41.481Z,95.20
2022-08-18T10:44:28.363Z,96.10
2022-08-18T10:46:58.714Z,96.70
2022-08-18T10:49:28.696Z,96.70
2022-08-18T10:52:24.337Z,96.50
2022-08-18T10:55:24.134Z,96.30
2022-08-18T10:58:40.556Z,97.00
2022-08-18T11:01:25.693Z,96.90
2022-08-18T11:04:14.164Z,96.40
2022-08-18T11:06:47.430Z,96.20
2022-08-18T11:09:26.891Z,95.80
2022-08-18T11:11:59.272Z,96.20
2022-08-18T11:15:22.015Z,96.40
2022-08-18T11:18:24.174Z,95.60
2022-08-18T11:20:52.003Z,95.50
2022-08-18T11:23:18.704Z,95.90
2022-08-18T11:25:48.258Z,95.60
2022-08-18T11:28:21.919Z,95.90
2022-08-18T11:30:58.150Z,95.60
2022-08-18T11:33:25.126Z,95.10
2022-08-18T11:35:59.265Z,95.30
2022-08-18T11:38:31.110Z,95.50
2022-08-18T11:41:20.620Z,95.70
2022-08-18T11:43:50.562Z,96.50
2022-08-18T11:46:28.054Z,95.70
2022-08-18T11:49:00.365Z,95.50
2022-08-18T11:51:32.114Z,94.50
2022-08-18T11:54:13.158Z,94.40
2022-08-18T11:56:40.072Z,93.00
2022-08-18T11:59:54.935Z,92.90
2022-08-18T12:02:25.344Z,93.50
2022-08-18T12:04:57.817Z,93.80
2022-08-18T12:07:32.020Z,92.60
2022-08-18T12:10:26.439Z,93.80
2022-08-18T12:12:59.626Z,93.60
2022-08-18T12:15:44.897Z,94.50
2022-08-18T12:18:26.181Z,94.10
2022-08-18T12:20:58.564Z,93.60
2022-08-18T12:23:26.045Z,92.20
2022-08-18T12:25:52.775Z,91.20
2022-08-18T12:28:22.831Z,92.30
2022-08-18T12:30:56.050Z,91.90
2022-08-18T12:33:48.349Z,92.90
2022-08-18T12:36:29.758Z,93.10
2022-08-18T12:38:57.154Z,91.70
2022-08-18T12:41:24.377Z,92.10
2022-08-18T12:46:42.856Z,92.40
2022-08-18T12:49:24.927Z,92.40
2022-08-18T12:51:55.626Z,91.70
2022-08-18T12:54:22.767Z,91.80
2022-08-18T12:56:55.066Z,92.30
2022-08-18T13:02:11.533Z,92.00
2022-08-18T13:04:39.566Z,91.60
2022-08-18T13:07:08.010Z,90.80
2022-08-18T13:09:53.995Z,90.30
2022-08-18T13:12:22.481Z,90.70
2022-08-18T13:14:51.497Z,90.20
2022-08-18T13:17:32.495Z,90.00
2022-08-18T13:20:11.061Z,90.20
2022-08-18T13:22:40.886Z,89.00
2022-08-18T13:25:11.426Z,90.10
2022-08-18T13:27:39.084Z,90.30
2022-08-18T13:30:29.920Z,89.30
2022-08-18T13:33:02.617Z,90.10
2022-08-18T13:35:35.221Z,89.80
2022-08-18T13:38:14.225Z,90.00
2022-08-18T13:40:48.505Z,90.90
2022-08-18T13:43:17.912Z,91.10
2022-08-18T13:45:48.013Z,90.60
2022-08-18T13:48:19.906Z,90.30
2022-08-18T13:50:47.233Z,90.70
2022-08-18T13:53:20.175Z,91.00
2022-08-18T13:55:47.886Z,91.20
2022-08-18T13:58:20.515Z,91.50
2022-08-18T14:00:52.315Z,91.40
2022-08-18T14:03:42.749Z,91.40
2022-08-18T14:06:13.088Z,91.50
2022-08-18T14:08:40.555Z,91.60
2022-08-18T14:11:08.385Z,91.80
2022-08-18T14:13:38.235Z,92.30
2022-08-18T14:16:18.691Z,92.00
2022-08-18T14:19:09.961Z,92.10
2022-08-18T14:22:01.190Z,91.80
2022-08-18T14:24:48.963Z,91.50
2022-08-18T14:27:17.189Z,91.50
2022-08-18T14:29:47.780Z,91.80
2022-08-18T14:32:28.481Z,91.40
2022-08-18T14:34:59.808Z,91.30
2022-08-18T14:37:27.800Z,91.00
2022-08-18T14:39:54.679Z,91.50
2022-08-18T14:42:41.194Z,91.00
2022-08-18T14:45:27.494Z,91.20
2022-08-18T14:47:58.706Z,90.90
2022-08-18T14:50:26.736Z,90.80
2022-08-18T14:52:53.636Z,91.60
2022-08-18T14:55:20.522Z,92.30
2022-08-18T14:57:47.276Z,92.30
2022-08-18T15:00:17.115Z,91.90
2022-08-18T15:02:49.205Z,92.00
2022-08-18T15:05:19.606Z,92.70
2022-08-18T15:07:50.813Z,93.20
2022-08-18T15:10:20.002Z,93.30
2022-08-18T15:12:50.978Z,93.50
2022-08-18T15:15:18.509Z,94.20
2022-08-18T15:17:50.262Z,94.80
2022-08-18T15:20:24.024Z,95.20
2022-08-18T15:23:17.270Z,95.80
2022-08-18T15:25:46.290Z,97.20
2022-08-18T15:28:23.712Z,97.70
2022-08-18T15:31:16.595Z,98.30
2022-08-18T15:33:39.521Z,98.60
2022-08-18T15:36:09.891Z,98.70
2022-08-18T15:38:37.448Z,98.70
2022-08-18T15:41:06.291Z,99.00
2022-08-18T15:43:45.992Z,98.70
2022-08-18T15:46:13.963Z,98.90
2022-08-18T15:48:43.958Z,98.30
2022-08-18T15:51:12.035Z,98.60
2022-08-18T15:53:44.631Z,98.30
2022-08-18T15:56:21.399Z,98.20
2022-08-18T15:58:49.497Z,98.00
2022-08-18T16:01:29.833Z,97.70
2022-08-18T16:03:57.420Z,98.10
2022-08-18T16:06:27.810Z,98.30
2022-08-18T16:09:00.232Z,98.70
2022-08-18T16:11:29.170Z,99.00
2022-08-18T16:13:58.899Z,99.00
2022-08-18T16:16:33.290Z,98.50
2022-08-18T16:19:04.765Z,98.50
2022-08-18T16:21:31.487Z,98.30
2022-08-18T16:23:58.329Z,98.00
2022-08-18T16:26:25.016Z,98.20
2022-08-18T16:28:52.701Z,98.20
2022-08-18T16:31:25.010Z,98.10
2022-08-18T16:33:53.877Z,98.10
2022-08-18T16:36:21.364Z,98.00
2022-08-18T16:38:48.326Z,98.10
2022-08-18T16:41:20.728Z,98.20
2022-08-18T16:43:47.998Z,98.10
2022-08-18T16:46:24.518Z,97.90
2022-08-18T16:48:51.501Z,97.90
2022-08-18T16:51:21.830Z,98.00
2022-08-18T16:53:52.424Z,98.00
2022-08-18T16:56:22.830Z,98.20
2022-08-18T16:59:08.629Z,98.70
2022-08-18T17:01:54.639Z,98.90
2022-08-18T17:04:25.872Z,99.20
2022-08-18T17:06:52.633Z,99.70
2022-08-18T17:09:20.066Z,99.90
2022-08-18T17:11:52.034Z,99.90
2022-08-18T17:14:21.268Z,99.90
2022-08-18T17:16:51.060Z,99.90
2022-08-18T17:19:17.742Z,99.90
2022-08-18T17:21:44.649Z,99.90
2022-08-18T17:24:11.662Z,99.90
2022-08-18T17:27:02.494Z,99.90
2022-08-18T17:29:45.899Z,99.90
2022-08-18T17:32:29.334Z,99.90
2022-08-18T17:35:04.479Z,99.90
2022-08-18T17:37:31.306Z,99.90
2022-08-18T17:40:05.109Z,99.90
2022-08-18T17:42:33.447Z,99.90
2022-08-18T17:45:04.989Z,99.90
2022-08-18T17:47:43.497Z,99.90
2022-08-18T17:51:07.251Z,99.90
2022-08-18T17:53:36.176Z,99.90
2022-08-18T17:56:23.087Z,99.90
2022-08-18T17:59:51.049Z,99.90
2022-08-18T18:02:28.368Z,99.90
2022-08-18T18:04:55.992Z,99.90
2022-08-18T18:07:27.303Z,99.90
2022-08-18T18:09:58.097Z,99.90
2022-08-18T18:12:28.503Z,99.90
2022-08-18T18:14:59.599Z,99.90
2022-08-18T18:17:39.186Z,99.90
2022-08-18T18:20:36.498Z,99.90
2022-08-18T18:23:25.152Z,99.90
2022-08-18T18:25:51.980Z,99.90
2022-08-18T18:28:28.253Z,99.90
2022-08-18T18:30:59.820Z,99.90
2022-08-18T18:33:29.991Z,99.90
2022-08-18T18:35:59.407Z,99.90
2022-08-18T18:38:33.208Z,99.90
2022-08-18T18:41:24.666Z,99.90
2022-08-18T18:44:06.213Z,99.90
2022-08-18T18:47:18.651Z,99.90
2022-08-18T18:50:03.984Z,99.90
2022-08-18T18:52:52.846Z,99.90
2022-08-18T18:55:24.342Z,99.90
2022-08-18T18:58:23.187Z,99.90
2022-08-18T19:00:59.999Z,99.90
2022-08-18T19:03:45.002Z,99.90
2022-08-18T19:06:26.844Z,99.90
2022-08-18T19:09:33.211Z,99.90
2022-08-18T19:12:20.497Z,99.90
2022-08-18T19:15:00.266Z,99.90
2022-08-18T19:17:33.302Z,99.90
2022-08-18T19:20:27.578Z,99.90
2022-08-18T19:23:04.632Z,99.90
2022-08-18T19:25:35.690Z,99.90
2022-08-18T19:28:16.464Z,99.90
2022-08-18T19:30:47.631Z,99.90
2022-08-18T19:33:25.776Z,99.90
2022-08-18T19:36:19.479Z,99.90
2022-08-18T19:39:02.121Z,99.90
2022-08-18T19:41:56.402Z,99.90
2022-08-18T19:44:29.705Z,99.90
2022-08-18T19:47:26.877Z,99.90
2022-08-18T19:50:12.609Z,99.90
2022-08-18T19:53:22.353Z,99.90
2022-08-18T19:56:25.153Z,99.90
2022-08-18T19:59:25.061Z,99.90
2022-08-18T20:02:20.846Z,99.90
2022-08-18T20:05:17.689Z,99.90
2022-08-18T20:08:25.693Z,99.90
2022-08-18T20:11:07.166Z,99.90
2022-08-18T20:13:42.903Z,99.90
2022-08-18T20:16:23.599Z,99.90
2022-08-18T20:18:56.304Z,99.90
2022-08-18T20:21:41.638Z,99.90
2022-08-18T20:24:38.290Z,99.90
2022-08-18T20:27:23.681Z,99.90
2022-08-18T20:30:08.780Z,99.90
2022-08-18T20:32:36.242Z,99.90
2022-08-18T20:35:29.875Z,99.90
2022-08-18T20:38:25.818Z,99.90
2022-08-18T20:40:54.066Z,99.90
2022-08-18T20:43:34.462Z,99.90
2022-08-18T20:46:21.758Z,99.90
2022-08-18T20:49:08.116Z,99.90
2022-08-18T20:51:52.165Z,99.90
2022-08-18T20:54:21.966Z,99.90
2022-08-18T20:56:55.566Z,99.90
2022-08-18T20:59:32.903Z,99.90
2022-08-18T21:02:08.137Z,99.90
2022-08-18T21:04:50.979Z,99.90
2022-08-18T21:07:36.163Z,99.90
2022-08-18T21:10:17.733Z,99.90
2022-08-18T21:12:53.676Z,99.90
2022-08-18T21:15:24.157Z,99.90
2022-08-18T21:18:02.226Z,99.90
2022-08-18T21:20:30.305Z,99.90
2022-08-18T21:23:10.571Z,99.90
2022-08-18T21:25:53.467Z,99.90
2022-08-18T21:28:21.642Z,99.90
2022-08-18T21:31:41.677Z,99.90
2022-08-18T21:34:00.343Z,99.90
2022-08-18T21:36:32.074Z,99.90
2022-08-18T21:39:06.198Z,99.90
2022-08-18T21:41:39.090Z,99.90
2022-08-18T21:44:21.585Z,99.90
2022-08-18T21:46:48.875Z,99.90
2022-08-18T21:49:27.315Z,99.90
2022-08-18T21:51:54.538Z,99.90
2022-08-18T21:54:24.668Z,99.90
2022-08-18T21:57:20.995Z,99.90
2022-08-18T22:00:20.324Z,99.90
2022-08-18T22:02:52.061Z,99.90
2022-08-18T22:05:58.331Z,99.90
2022-08-18T22:08:23.079Z,99.90
2022-08-18T22:12:00.384Z,99.90
2022-08-18T22:14:28.801Z,99.90
2022-08-18T22:17:48.321Z,99.90
2022-08-18T22:20:43.142Z,99.90
2022-08-18T22:23:34.351Z,99.90
2022-08-18T22:26:26.305Z,99.90
2022-08-18T22:29:33.883Z,99.90
2022-08-18T22:32:01.893Z,99.90
2022-08-18T22:34:31.891Z,99.90
2022-08-18T22:37:00.494Z,99.90
2022-08-18T22:39:31.761Z,99.90
2022-08-18T22:41:58.963Z,99.90
2022-08-18T22:44:26.713Z,99.90
2022-08-18T22:46:54.312Z,99.90
2022-08-18T22:49:22.429Z,99.90
2022-08-18T22:51:51.466Z,99.90
2022-08-18T22:54:19.455Z,99.90
2022-08-18T22:56:56.613Z,99.90
2022-08-18T22:59:26.824Z,99.90
2022-08-18T23:01:54.768Z,99.90
2022-08-18T23:04:23.135Z,99.90
2022-08-18T23:06:53.567Z,99.90
2022-08-18T23:09:23.257Z,99.90
2022-08-18T23:11:50.911Z,99.90
2022-08-18T23:14:17.727Z,99.90
2022-08-18T23:16:46.881Z,99.90
2022-08-18T23:19:15.249Z,99.90
2022-08-18T23:21:43.585Z,99.90
2022-08-18T23:24:12.564Z,99.90
2022-08-18T23:26:40.301Z,99.90
2022-08-18T23:29:11.424Z,99.90
2022-08-18T23:31:40.013Z,99.90
2022-08-18T23:34:08.457Z,99.90
2022-08-18T23:36:37.835Z,99.90
2022-08-18T23:39:06.700Z,99.90
2022-08-18T23:41:35.416Z,99.90
2022-08-18T23:44:02.260Z,99.90
2022-08-18T23:46:31.850Z,99.90
2022-08-18T23:49:00.558Z,99.90
2022-08-18T23:51:35.031Z,99.90
2022-08-18T23:54:07.561Z,99.90
2022-08-18T23:56:35.714Z,99.90
2022-08-18T23:59:04.709Z,99.90
